sensor_id;sensor_type;location;lat;lon;timestamp;pressure;altitude;pressure_sealevel;temperature;humidity
32642;BME280;19323;56.072;9.698;2023-03-15T00:00:54;99442.97;;;25.49;37.16
32642;BME280;19323;56.072;9.698;2023-03-15T00:03:20;99441.09;;;25.50;37.15
32642;BME280;19323;56.072;9.698;2023-03-15T00:05:46;99457.19;;;25.50;37.05
32642;BME280;19323;56.072;9.698;2023-03-15T00:08:11;99454.69;;;25.48;37.04
32642;BME280;19323;56.072;9.698;2023-03-15T00:10:40;99449.72;;;25.45;36.98
32642;BME280;19323;56.072;9.698;2023-03-15T00:13:06;99455.91;;;25.46;36.94
32642;BME280;19323;56.072;9.698;2023-03-15T00:15:31;99465.78;;;25.45;36.94
32642;BME280;19323;56.072;9.698;2023-03-15T00:17:56;99470.13;;;25.46;37.10
32642;BME280;19323;56.072;9.698;2023-03-15T00:20:21;99474.66;;;25.46;36.95
32642;BME280;19323;56.072;9.698;2023-03-15T00:22:46;99472.97;;;25.45;36.87
32642;BME280;19323;56.072;9.698;2023-03-15T00:25:11;99482.06;;;25.44;37.16
32642;BME280;19323;56.072;9.698;2023-03-15T00:27:37;99488.25;;;25.44;36.94
32642;BME280;19323;56.072;9.698;2023-03-15T00:30:02;99488.25;;;25.44;36.92
32642;BME280;19323;56.072;9.698;2023-03-15T00:32:27;99491.97;;;25.43;36.96
32642;BME280;19323;56.072;9.698;2023-03-15T00:34:52;99492.78;;;25.44;36.94
32642;BME280;19323;56.072;9.698;2023-03-15T00:37:18;99504.50;;;25.43;37.02
32642;BME280;19323;56.072;9.698;2023-03-15T00:39:44;99496.47;;;25.43;37.17
32642;BME280;19323;56.072;9.698;2023-03-15T00:42:10;99505.53;;;25.42;36.90
32642;BME280;19323;56.072;9.698;2023-03-15T00:44:35;99501.22;;;25.41;37.20
32642;BME280;19323;56.072;9.698;2023-03-15T00:47:00;99500.34;;;25.40;37.11
32642;BME280;19323;56.072;9.698;2023-03-15T00:49:26;99504.91;;;25.40;37.08
32642;BME280;19323;56.072;9.698;2023-03-15T00:51:53;99505.53;;;25.42;37.04
32642;BME280;19323;56.072;9.698;2023-03-15T00:54:18;99510.25;;;25.40;36.87
32642;BME280;19323;56.072;9.698;2023-03-15T00:56:43;99510.25;;;25.40;37.05
32642;BME280;19323;56.072;9.698;2023-03-15T00:59:08;99520.16;;;25.39;36.88
32642;BME280;19323;56.072;9.698;2023-03-15T01:01:34;99520.16;;;25.39;36.88
32642;BME280;19323;56.072;9.698;2023-03-15T01:03:59;99523.84;;;25.38;36.99
32642;BME280;19323;56.072;9.698;2023-03-15T01:06:26;99526.50;;;25.38;36.98
32642;BME280;19323;56.072;9.698;2023-03-15T01:08:51;99531.88;;;25.38;36.97
32642;BME280;19323;56.072;9.698;2023-03-15T01:11:19;99546.13;;;25.39;36.88
32642;BME280;19323;56.072;9.698;2023-03-15T01:13:46;99533.09;;;25.36;36.93
32642;BME280;19323;56.072;9.698;2023-03-15T01:16:12;99541.94;;;25.36;36.88
32642;BME280;19323;56.072;9.698;2023-03-15T01:18:37;99542.16;;;25.35;37.13
32642;BME280;19323;56.072;9.698;2023-03-15T01:21:06;99530.88;;;25.24;36.80
32642;BME280;19323;56.072;9.698;2023-03-15T01:23:31;99550.19;;;25.35;37.01
32642;BME280;19323;56.072;9.698;2023-03-15T01:26:03;99552.03;;;25.34;37.08
32642;BME280;19323;56.072;9.698;2023-03-15T01:28:28;99547.69;;;25.33;37.03
32642;BME280;19323;56.072;9.698;2023-03-15T01:30:53;99541.50;;;25.33;36.85
32642;BME280;19323;56.072;9.698;2023-03-15T01:33:19;99543.38;;;25.32;37.13
32642;BME280;19323;56.072;9.698;2023-03-15T01:35:44;99544.19;;;25.33;37.06
32642;BME280;19323;56.072;9.698;2023-03-15T01:38:10;99546.22;;;25.31;37.13
32642;BME280;19323;56.072;9.698;2023-03-15T01:40:39;99555.28;;;25.29;36.99
32642;BME280;19323;56.072;9.698;2023-03-15T01:43:11;99551.59;;;25.31;36.86
32642;BME280;19323;56.072;9.698;2023-03-15T01:48:22;99561.47;;;25.30;36.97
32642;BME280;19323;56.072;9.698;2023-03-15T01:50:50;99566.00;;;25.29;36.99
32642;BME280;19323;56.072;9.698;2023-03-15T01:53:16;99568.03;;;25.27;36.93
32642;BME280;19323;56.072;9.698;2023-03-15T01:55:41;99566.19;;;25.28;37.05
32642;BME280;19323;56.072;9.698;2023-03-15T01:58:07;99573.38;;;25.27;36.82
32642;BME280;19323;56.072;9.698;2023-03-15T02:00:33;99560.19;;;25.26;36.95
32642;BME280;19323;56.072;9.698;2023-03-15T02:02:59;99565.53;;;25.26;36.89
32642;BME280;19323;56.072;9.698;2023-03-15T02:05:29;99570.91;;;25.26;36.96
32642;BME280;19323;56.072;9.698;2023-03-15T02:07:56;99576.44;;;25.24;36.90
32642;BME280;19323;56.072;9.698;2023-03-15T02:10:35;99585.31;;;25.25;36.95
32642;BME280;19323;56.072;9.698;2023-03-15T02:13:01;99603.25;;;25.24;36.89
32642;BME280;19323;56.072;9.698;2023-03-15T02:15:26;99602.25;;;25.25;36.99
32642;BME280;19323;56.072;9.698;2023-03-15T02:17:52;99605.91;;;25.24;36.94
32642;BME280;19323;56.072;9.698;2023-03-15T02:22:46;99608.78;;;25.23;36.83
32642;BME280;19323;56.072;9.698;2023-03-15T02:25:21;99613.31;;;25.22;36.81
32642;BME280;19323;56.072;9.698;2023-03-15T02:27:47;99614.34;;;25.21;36.76
32642;BME280;19323;56.072;9.698;2023-03-15T02:30:13;99617.03;;;25.21;36.75
32642;BME280;19323;56.072;9.698;2023-03-15T02:32:38;99622.38;;;25.21;37.02
32642;BME280;19323;56.072;9.698;2023-03-15T02:35:03;99618.84;;;25.21;36.82
32642;BME280;19323;56.072;9.698;2023-03-15T02:37:28;99619.06;;;25.19;36.94
32642;BME280;19323;56.072;9.698;2023-03-15T02:39:53;99625.25;;;25.20;36.82
32642;BME280;19323;56.072;9.698;2023-03-15T02:42:19;99629.09;;;25.17;36.83
32642;BME280;19323;56.072;9.698;2023-03-15T02:44:45;99626.41;;;25.17;36.94
32642;BME280;19323;56.072;9.698;2023-03-15T02:47:13;99636.09;;;25.18;36.91
32642;BME280;19323;56.072;9.698;2023-03-15T02:49:41;99635.44;;;25.16;36.81
32642;BME280;19323;56.072;9.698;2023-03-15T02:52:08;99645.16;;;25.17;36.91
32642;BME280;19323;56.072;9.698;2023-03-15T02:54:33;99647.84;;;25.17;36.75
32642;BME280;19323;56.072;9.698;2023-03-15T02:56:59;99644.50;;;25.15;36.88
32642;BME280;19323;56.072;9.698;2023-03-15T02:59:24;99648.19;;;25.14;36.76
32642;BME280;19323;56.072;9.698;2023-03-15T03:01:49;99656.88;;;25.16;36.84
32642;BME280;19323;56.072;9.698;2023-03-15T03:04:15;99657.91;;;25.15;36.72
32642;BME280;19323;56.072;9.698;2023-03-15T03:06:40;99666.94;;;25.14;36.93
32642;BME280;19323;56.072;9.698;2023-03-15T03:09:07;99664.25;;;25.14;36.61
32642;BME280;19323;56.072;9.698;2023-03-15T03:11:33;99680.34;;;25.14;36.92
32642;BME280;19323;56.072;9.698;2023-03-15T03:13:58;99684.22;;;25.12;36.75
32642;BME280;19323;56.072;9.698;2023-03-15T03:16:23;99686.09;;;25.11;36.77
32642;BME280;19323;56.072;9.698;2023-03-15T03:18:48;99694.13;;;25.11;36.81
32642;BME280;19323;56.072;9.698;2023-03-15T03:21:13;99694.13;;;25.11;36.75
32642;BME280;19323;56.072;9.698;2023-03-15T03:23:38;99702.16;;;25.11;36.91
32642;BME280;19323;56.072;9.698;2023-03-15T03:26:10;99698.66;;;25.11;36.79
32642;BME280;19323;56.072;9.698;2023-03-15T03:28:35;99712.88;;;25.11;36.91
32642;BME280;19323;56.072;9.698;2023-03-15T03:31:01;99715.72;;;25.09;36.88
32642;BME280;19323;56.072;9.698;2023-03-15T03:33:26;99732.63;;;25.10;36.79
32642;BME280;19323;56.072;9.698;2023-03-15T03:35:51;99723.00;;;25.01;36.91
32642;BME280;19323;56.072;9.698;2023-03-15T03:38:18;99754.91;;;25.11;36.76
32642;BME280;19323;56.072;9.698;2023-03-15T03:40:44;99754.25;;;25.08;36.79
32642;BME280;19323;56.072;9.698;2023-03-15T03:43:09;99764.31;;;25.06;36.74
32642;BME280;19323;56.072;9.698;2023-03-15T03:45:34;99764.31;;;25.06;36.69
32642;BME280;19323;56.072;9.698;2023-03-15T03:48:00;99733.38;;;25.04;36.57
32642;BME280;19323;56.072;9.698;2023-03-15T03:50:25;99712.94;;;25.03;36.66
32642;BME280;19323;56.072;9.698;2023-03-15T03:52:51;99695.22;;;25.02;36.68
32642;BME280;19323;56.072;9.698;2023-03-15T03:55:16;99704.91;;;25.03;36.84
32642;BME280;19323;56.072;9.698;2023-03-15T03:57:41;99708.59;;;25.02;36.85
32642;BME280;19323;56.072;9.698;2023-03-15T04:00:11;99716.81;;;25.00;36.75
32642;BME280;19323;56.072;9.698;2023-03-15T04:02:38;99729.38;;;25.00;36.74
32642;BME280;19323;56.072;9.698;2023-03-15T04:05:03;99730.38;;;24.99;36.85
32642;BME280;19323;56.072;9.698;2023-03-15T04:07:28;99740.28;;;24.98;36.89
32642;BME280;19323;56.072;9.698;2023-03-15T04:09:53;99745.63;;;24.98;36.88
32642;BME280;19323;56.072;9.698;2023-03-15T04:12:19;99747.31;;;24.99;36.83
32642;BME280;19323;56.072;9.698;2023-03-15T04:14:44;99752.84;;;24.98;36.83
32642;BME280;19323;56.072;9.698;2023-03-15T04:17:09;99757.16;;;24.99;36.87
32642;BME280;19323;56.072;9.698;2023-03-15T04:19:34;99759.84;;;24.99;36.64
32642;BME280;19323;56.072;9.698;2023-03-15T04:21:59;99764.22;;;25.00;36.82
32642;BME280;19323;56.072;9.698;2023-03-15T04:24:30;99761.69;;;24.98;36.83
32642;BME280;19323;56.072;9.698;2023-03-15T04:26:55;99771.41;;;24.99;36.66
32642;BME280;19323;56.072;9.698;2023-03-15T04:29:21;99772.25;;;25.00;36.73
32642;BME280;19323;56.072;9.698;2023-03-15T04:31:47;99774.94;;;25.00;36.66
32642;BME280;19323;56.072;9.698;2023-03-15T04:34:12;99782.97;;;25.00;36.65
32642;BME280;19323;56.072;9.698;2023-03-15T04:36:37;99784.63;;;25.01;36.88
32642;BME280;19323;56.072;9.698;2023-03-15T04:39:02;99791.81;;;25.00;36.78
32642;BME280;19323;56.072;9.698;2023-03-15T04:41:31;99806.03;;;25.01;36.91
32642;BME280;19323;56.072;9.698;2023-03-15T04:43:58;99806.03;;;25.01;37.13
32642;BME280;19323;56.072;9.698;2023-03-15T04:46:23;99799.88;;;25.00;37.14
32642;BME280;19323;56.072;9.698;2023-03-15T04:48:49;99799.03;;;25.00;36.97
32642;BME280;19323;56.072;9.698;2023-03-15T04:51:15;99793.03;;;24.98;37.24
32642;BME280;19323;56.072;9.698;2023-03-15T04:53:40;99795.53;;;24.99;37.22
32642;BME280;19323;56.072;9.698;2023-03-15T04:56:05;99793.69;;;25.00;37.10
32642;BME280;19323;56.072;9.698;2023-03-15T04:58:31;99792.84;;;24.99;37.28
32642;BME280;19323;56.072;9.698;2023-03-15T05:00:56;99790.34;;;24.98;37.40
32642;BME280;19323;56.072;9.698;2023-03-15T05:03:21;99786.63;;;24.99;37.19
32642;BME280;19323;56.072;9.698;2023-03-15T05:05:46;99787.66;;;24.98;37.35
32642;BME280;19323;56.072;9.698;2023-03-15T05:08:11;99790.16;;;24.99;37.43
32642;BME280;19323;56.072;9.698;2023-03-15T05:10:36;99797.34;;;24.99;37.33
32642;BME280;19323;56.072;9.698;2023-03-15T05:13:02;99800.03;;;24.99;37.61
32642;BME280;19323;56.072;9.698;2023-03-15T05:15:27;99801.88;;;24.98;37.66
32642;BME280;19323;56.072;9.698;2023-03-15T05:17:52;99803.72;;;24.98;37.68
32642;BME280;19323;56.072;9.698;2023-03-15T05:20:19;99798.38;;;24.98;37.69
32642;BME280;19323;56.072;9.698;2023-03-15T05:22:45;99802.91;;;24.97;37.67
32642;BME280;19323;56.072;9.698;2023-03-15T05:25:10;99808.25;;;24.97;37.70
32642;BME280;19323;56.072;9.698;2023-03-15T05:27:36;99811.78;;;24.98;37.78
32642;BME280;19323;56.072;9.698;2023-03-15T05:30:02;99811.94;;;24.96;37.82
32642;BME280;19323;56.072;9.698;2023-03-15T05:32:28;99805.75;;;24.96;37.98
32642;BME280;19323;56.072;9.698;2023-03-15T05:34:53;99813.78;;;24.96;37.98
32642;BME280;19323;56.072;9.698;2023-03-15T05:37:22;99821.81;;;24.96;37.89
32642;BME280;19323;56.072;9.698;2023-03-15T05:39:47;99820.81;;;24.97;38.04
32642;BME280;19323;56.072;9.698;2023-03-15T05:42:12;99822.81;;;24.95;37.78
32642;BME280;19323;56.072;9.698;2023-03-15T05:44:37;99820.34;;;24.93;38.08
32642;BME280;19323;56.072;9.698;2023-03-15T05:47:02;99815.81;;;24.94;38.08
32642;BME280;19323;56.072;9.698;2023-03-15T05:49:27;99827.56;;;24.93;38.14
32642;BME280;19323;56.072;9.698;2023-03-15T05:51:52;99823.19;;;24.92;38.25
32642;BME280;19323;56.072;9.698;2023-03-15T05:54:18;99827.88;;;24.90;38.39
32642;BME280;19323;56.072;9.698;2023-03-15T05:56:43;99829.56;;;24.91;38.53
32642;BME280;19323;56.072;9.698;2023-03-15T05:59:08;99835.59;;;24.93;38.40
32642;BME280;19323;56.072;9.698;2023-03-15T06:01:33;99847.13;;;24.93;38.33
32642;BME280;19323;56.072;9.698;2023-03-15T06:03:58;99859.69;;;24.93;38.78
32642;BME280;19323;56.072;9.698;2023-03-15T06:06:23;99863.38;;;24.92;38.92
32642;BME280;19323;56.072;9.698;2023-03-15T06:08:49;99870.75;;;24.90;38.92
32642;BME280;19323;56.072;9.698;2023-03-15T06:11:14;99871.78;;;24.88;39.06
32642;BME280;19323;56.072;9.698;2023-03-15T06:13:39;99877.97;;;24.89;38.91
32642;BME280;19323;56.072;9.698;2023-03-15T06:16:04;99884.31;;;24.88;38.94
32642;BME280;19323;56.072;9.698;2023-03-15T06:18:30;99880.97;;;24.86;39.16
32642;BME280;19323;56.072;9.698;2023-03-15T06:20:55;99884.66;;;24.85;39.37
32642;BME280;19323;56.072;9.698;2023-03-15T06:23:20;99890.38;;;24.82;39.68
32642;BME280;19323;56.072;9.698;2023-03-15T06:25:45;99886.19;;;24.79;39.95
32642;BME280;19323;56.072;9.698;2023-03-15T06:28:11;99887.22;;;24.78;39.71
32642;BME280;19323;56.072;9.698;2023-03-15T06:30:36;99884.69;;;24.77;39.73
32642;BME280;19323;56.072;9.698;2023-03-15T06:33:01;99893.75;;;24.76;39.73
32642;BME280;19323;56.072;9.698;2023-03-15T06:35:26;99898.28;;;24.75;39.63
32642;BME280;19323;56.072;9.698;2023-03-15T06:37:51;99902.63;;;24.76;39.77
32642;BME280;19323;56.072;9.698;2023-03-15T06:40:17;99909.00;;;24.75;39.76
32642;BME280;19323;56.072;9.698;2023-03-15T06:42:42;99911.69;;;24.75;39.65
32642;BME280;19323;56.072;9.698;2023-03-15T06:45:07;99910.00;;;24.74;39.63
32642;BME280;19323;56.072;9.698;2023-03-15T06:47:33;99919.88;;;24.74;39.75
32642;BME280;19323;56.072;9.698;2023-03-15T06:49:59;99919.88;;;24.74;39.63
32642;BME280;19323;56.072;9.698;2023-03-15T06:52:24;99926.06;;;24.74;39.66
32642;BME280;19323;56.072;9.698;2023-03-15T06:54:49;99929.56;;;24.75;39.68
32642;BME280;19323;56.072;9.698;2023-03-15T06:57:14;99931.25;;;24.76;39.61
32642;BME280;19323;56.072;9.698;2023-03-15T06:59:40;99930.41;;;24.75;39.59
32642;BME280;19323;56.072;9.698;2023-03-15T07:02:05;99940.09;;;24.76;39.46
32642;BME280;19323;56.072;9.698;2023-03-15T07:04:30;99942.63;;;24.78;39.55
32642;BME280;19323;56.072;9.698;2023-03-15T07:06:55;99937.28;;;24.78;39.50
32642;BME280;19323;56.072;9.698;2023-03-15T07:09:21;99941.44;;;24.80;39.51
32642;BME280;19323;56.072;9.698;2023-03-15T07:11:46;99940.59;;;24.80;39.40
32642;BME280;19323;56.072;9.698;2023-03-15T07:14:11;99942.63;;;24.78;39.21
32642;BME280;19323;56.072;9.698;2023-03-15T07:16:36;99951.31;;;24.80;39.58
32642;BME280;19323;56.072;9.698;2023-03-15T07:19:02;99945.09;;;24.79;39.52
32642;BME280;19323;56.072;9.698;2023-03-15T07:21:27;99958.34;;;24.81;39.33
32642;BME280;19323;56.072;9.698;2023-03-15T07:23:52;99947.63;;;24.81;39.44
32642;BME280;19323;56.072;9.698;2023-03-15T07:26:17;99954.81;;;24.80;39.42
32642;BME280;19323;56.072;9.698;2023-03-15T07:28:42;99958.50;;;24.79;39.46
32642;BME280;19323;56.072;9.698;2023-03-15T07:31:09;99954.81;;;24.80;39.51
32642;BME280;19323;56.072;9.698;2023-03-15T07:33:35;99955.81;;;24.79;39.29
32642;BME280;19323;56.072;9.698;2023-03-15T07:36:01;99972.75;;;24.80;39.15
32642;BME280;19323;56.072;9.698;2023-03-15T07:38:28;99974.56;;;24.79;39.35
32642;BME280;19323;56.072;9.698;2023-03-15T07:40:53;99974.41;;;24.81;39.26
32642;BME280;19323;56.072;9.698;2023-03-15T07:43:19;99980.59;;;24.81;39.01
32642;BME280;19323;56.072;9.698;2023-03-15T07:45:44;99985.78;;;24.83;39.10
32642;BME280;19323;56.072;9.698;2023-03-15T07:48:09;99986.63;;;24.83;39.08
32642;BME280;19323;56.072;9.698;2023-03-15T07:50:35;99993.66;;;24.84;38.96
32642;BME280;19323;56.072;9.698;2023-03-15T07:53:01;99984.81;;;24.76;39.10
32642;BME280;19323;56.072;9.698;2023-03-15T07:55:27;100006.22;;;24.84;39.04
32642;BME280;19323;56.072;9.698;2023-03-15T07:57:52;100009.06;;;24.82;39.02
32642;BME280;19323;56.072;9.698;2023-03-15T08:00:18;100008.03;;;24.83;39.10
32642;BME280;19323;56.072;9.698;2023-03-15T08:02:43;100006.38;;;24.82;38.96
32642;BME280;19323;56.072;9.698;2023-03-15T08:05:08;100015.25;;;24.83;39.13
32642;BME280;19323;56.072;9.698;2023-03-15T08:07:34;100022.47;;;24.82;39.05
32642;BME280;19323;56.072;9.698;2023-03-15T08:10:00;100025.13;;;24.82;39.03
32642;BME280;19323;56.072;9.698;2023-03-15T08:12:26;100029.66;;;24.82;39.06
32642;BME280;19323;56.072;9.698;2023-03-15T08:14:51;100028.81;;;24.81;38.92
32642;BME280;19323;56.072;9.698;2023-03-15T08:17:17;100035.03;;;24.82;38.81
32642;BME280;19323;56.072;9.698;2023-03-15T08:19:42;100034.16;;;24.81;39.01
32642;BME280;19323;56.072;9.698;2023-03-15T08:22:08;100040.53;;;24.80;38.93
32642;BME280;19323;56.072;9.698;2023-03-15T08:24:33;100044.88;;;24.81;38.90
32642;BME280;19323;56.072;9.698;2023-03-15T08:26:58;100047.56;;;24.81;38.90
32642;BME280;19323;56.072;9.698;2023-03-15T08:29:24;100052.91;;;24.81;39.10
32642;BME280;19323;56.072;9.698;2023-03-15T08:31:49;100061.81;;;24.82;38.92
32642;BME280;19323;56.072;9.698;2023-03-15T08:34:14;100063.63;;;24.81;38.97
32642;BME280;19323;56.072;9.698;2023-03-15T08:36:40;100058.47;;;24.80;38.95
32642;BME280;19323;56.072;9.698;2023-03-15T08:39:05;100070.00;;;24.80;38.97
32642;BME280;19323;56.072;9.698;2023-03-15T08:41:30;100065.63;;;24.79;38.87
32642;BME280;19323;56.072;9.698;2023-03-15T08:43:56;100070.16;;;24.79;38.95
32642;BME280;19323;56.072;9.698;2023-03-15T08:46:21;100078.03;;;24.80;39.04
32642;BME280;19323;56.072;9.698;2023-03-15T08:48:46;100071.00;;;24.79;38.96
32642;BME280;19323;56.072;9.698;2023-03-15T08:51:11;100071.00;;;24.79;38.95
32642;BME280;19323;56.072;9.698;2023-03-15T08:53:37;100074.53;;;24.80;38.90
32642;BME280;19323;56.072;9.698;2023-03-15T08:56:02;100053.78;;;24.65;38.98
32642;BME280;19323;56.072;9.698;2023-03-15T08:58:28;100076.19;;;24.81;38.97
32642;BME280;19323;56.072;9.698;2023-03-15T09:00:54;100081.53;;;24.81;39.09
32642;BME280;19323;56.072;9.698;2023-03-15T09:03:19;100083.22;;;24.82;39.14
32642;BME280;19323;56.072;9.698;2023-03-15T09:05:44;100073.34;;;24.82;38.85
32642;BME280;19323;56.072;9.698;2023-03-15T09:08:09;100082.22;;;24.83;38.81
32642;BME280;19323;56.072;9.698;2023-03-15T09:10:35;100092.75;;;24.84;39.08
32642;BME280;19323;56.072;9.698;2023-03-15T09:13:00;100095.25;;;24.86;39.03
32642;BME280;19323;56.072;9.698;2023-03-15T09:15:25;100103.94;;;24.88;38.82
32642;BME280;19323;56.072;9.698;2023-03-15T09:17:50;100098.59;;;24.88;38.96
32642;BME280;19323;56.072;9.698;2023-03-15T09:20:16;100101.94;;;24.90;38.73
32642;BME280;19323;56.072;9.698;2023-03-15T09:22:43;100111.66;;;24.91;39.02
32642;BME280;19323;56.072;9.698;2023-03-15T09:25:13;100118.69;;;24.92;38.78
32642;BME280;19323;56.072;9.698;2023-03-15T09:27:38;100123.22;;;24.92;38.98
32642;BME280;19323;56.072;9.698;2023-03-15T09:30:03;100124.91;;;24.93;38.74
32642;BME280;19323;56.072;9.698;2023-03-15T09:32:29;100131.09;;;24.93;38.86
32642;BME280;19323;56.072;9.698;2023-03-15T09:34:59;100134.59;;;24.94;39.10
32642;BME280;19323;56.072;9.698;2023-03-15T09:37:25;100135.44;;;24.94;38.91
32642;BME280;19323;56.072;9.698;2023-03-15T09:39:50;100137.94;;;24.96;38.76
32642;BME280;19323;56.072;9.698;2023-03-15T09:42:17;100139.59;;;24.97;38.69
32642;BME280;19323;56.072;9.698;2023-03-15T09:44:47;100143.97;;;24.98;38.93
32642;BME280;19323;56.072;9.698;2023-03-15T09:49:50;100150.16;;;24.98;38.77
32642;BME280;19323;56.072;9.698;2023-03-15T09:52:21;100141.28;;;24.98;38.69
32642;BME280;19323;56.072;9.698;2023-03-15T09:55:00;100148.31;;;24.99;38.78
32642;BME280;19323;56.072;9.698;2023-03-15T10:00:12;100147.47;;;24.98;38.78
32642;BME280;19323;56.072;9.698;2023-03-15T10:02:38;100147.47;;;24.98;38.83
32642;BME280;19323;56.072;9.698;2023-03-15T10:05:07;100148.31;;;24.99;38.66
32642;BME280;19323;56.072;9.698;2023-03-15T10:07:35;100160.72;;;25.00;38.64
32642;BME280;19323;56.072;9.698;2023-03-15T10:10:00;100164.22;;;25.00;38.80
32642;BME280;19323;56.072;9.698;2023-03-15T10:12:30;100169.41;;;25.02;38.81
32642;BME280;19323;56.072;9.698;2023-03-15T10:15:07;100161.38;;;25.02;38.73
32642;BME280;19323;56.072;9.698;2023-03-15T10:20:24;100161.03;;;25.05;38.58
32642;BME280;19323;56.072;9.698;2023-03-15T10:23:13;100168.75;;;25.08;38.73
32642;BME280;19323;56.072;9.698;2023-03-15T10:25:35;100172.25;;;25.08;38.53
32642;BME280;19323;56.072;9.698;2023-03-15T10:28:03;100177.63;;;25.08;38.48
32642;BME280;19323;56.072;9.698;2023-03-15T10:30:30;100178.28;;;25.11;38.51
32642;BME280;19323;56.072;9.698;2023-03-15T10:35:42;100179.13;;;25.11;38.42
32642;BME280;19323;56.072;9.698;2023-03-15T10:38:17;100179.94;;;25.12;38.66
32642;BME280;19323;56.072;9.698;2023-03-15T10:40:44;100183.28;;;25.14;38.63
32642;BME280;19323;56.072;9.698;2023-03-15T10:43:11;100179.44;;;25.16;38.66
32642;BME280;19323;56.072;9.698;2023-03-15T10:45:37;100182.13;;;25.16;38.21
32642;BME280;19323;56.072;9.698;2023-03-15T10:48:03;100190.81;;;25.18;38.62
32642;BME280;19323;56.072;9.698;2023-03-15T10:50:30;100183.47;;;25.20;38.32
32642;BME280;19323;56.072;9.698;2023-03-15T10:52:56;100190.34;;;25.23;38.62
32642;BME280;19323;56.072;9.698;2023-03-15T10:55:29;100191.00;;;25.25;38.46
32642;BME280;19323;56.072;9.698;2023-03-15T10:57:57;100191.88;;;25.25;38.53
32642;BME280;19323;56.072;9.698;2023-03-15T11:00:30;100193.53;;;25.26;38.41
32642;BME280;19323;56.072;9.698;2023-03-15T11:03:06;100195.38;;;25.26;38.14
32642;BME280;19323;56.072;9.698;2023-03-15T11:05:39;100190.84;;;25.26;38.60
32642;BME280;19323;56.072;9.698;2023-03-15T11:08:05;100182.50;;;25.21;38.29
32642;BME280;19323;56.072;9.698;2023-03-15T11:10:34;100199.56;;;25.28;38.23
32642;BME280;19323;56.072;9.698;2023-03-15T11:13:19;100193.19;;;25.29;38.37
32642;BME280;19323;56.072;9.698;2023-03-15T11:18:16;100205.44;;;25.32;38.31
32642;BME280;19323;56.072;9.698;2023-03-15T11:20:42;100208.94;;;25.33;38.46
32642;BME280;19323;56.072;9.698;2023-03-15T11:23:15;100199.88;;;25.34;38.39
32642;BME280;19323;56.072;9.698;2023-03-15T11:25:42;100205.22;;;25.34;38.37
32642;BME280;19323;56.072;9.698;2023-03-15T11:28:10;100214.97;;;25.35;38.38
32642;BME280;19323;56.072;9.698;2023-03-15T11:30:39;100217.44;;;25.36;38.36
32642;BME280;19323;56.072;9.698;2023-03-15T11:33:06;100227.34;;;25.36;38.11
32642;BME280;19323;56.072;9.698;2023-03-15T11:35:32;100228.19;;;25.36;38.22
32642;BME280;19323;56.072;9.698;2023-03-15T11:38:01;100229.03;;;25.37;38.10
32642;BME280;19323;56.072;9.698;2023-03-15T11:40:38;100228.00;;;25.38;38.13
32642;BME280;19323;56.072;9.698;2023-03-15T11:43:19;100229.72;;;25.39;38.54
32642;BME280;19323;56.072;9.698;2023-03-15T11:45:59;100233.06;;;25.41;38.25
32642;BME280;19323;56.072;9.698;2023-03-15T11:48:45;100232.88;;;25.42;38.16
32642;BME280;19323;56.072;9.698;2023-03-15T11:51:11;100235.38;;;25.44;38.10
32642;BME280;19323;56.072;9.698;2023-03-15T11:53:40;100239.72;;;25.45;38.20
32642;BME280;19323;56.072;9.698;2023-03-15T11:56:20;100242.41;;;25.45;38.20
32642;BME280;19323;56.072;9.698;2023-03-15T11:58:58;100243.25;;;25.45;37.90
32642;BME280;19323;56.072;9.698;2023-03-15T12:01:27;100235.03;;;25.47;37.98
32642;BME280;19323;56.072;9.698;2023-03-15T12:04:25;100237.56;;;25.48;37.90
32642;BME280;19323;56.072;9.698;2023-03-15T12:06:38;100232.84;;;25.51;37.90
32642;BME280;19323;56.072;9.698;2023-03-15T12:09:37;100234.50;;;25.52;38.09
32642;BME280;19323;56.072;9.698;2023-03-15T12:11:48;100246.09;;;25.52;38.03
32642;BME280;19323;56.072;9.698;2023-03-15T12:14:30;100238.06;;;25.52;37.92
32642;BME280;19323;56.072;9.698;2023-03-15T12:19:39;100252.28;;;25.53;37.88
32642;BME280;19323;56.072;9.698;2023-03-15T12:22:11;100255.81;;;25.53;38.00
32642;BME280;19323;56.072;9.698;2023-03-15T12:24:37;100250.28;;;25.55;37.95
32642;BME280;19323;56.072;9.698;2023-03-15T12:27:16;100259.16;;;25.55;37.83
32642;BME280;19323;56.072;9.698;2023-03-15T12:29:43;100256.47;;;25.55;37.84
32642;BME280;19323;56.072;9.698;2023-03-15T12:32:16;100257.31;;;25.56;37.94
32642;BME280;19323;56.072;9.698;2023-03-15T12:37:26;100258.84;;;25.58;37.76
32642;BME280;19323;56.072;9.698;2023-03-15T12:50:37;100273.75;;;25.61;37.70
32642;BME280;19323;56.072;9.698;2023-03-15T12:53:02;100271.88;;;25.61;37.94
32642;BME280;19323;56.072;9.698;2023-03-15T12:55:28;100273.53;;;25.62;37.59
32642;BME280;19323;56.072;9.698;2023-03-15T12:57:56;100278.91;;;25.62;37.70
32642;BME280;19323;56.072;9.698;2023-03-15T13:00:22;100277.09;;;25.63;37.87
32642;BME280;19323;56.072;9.698;2023-03-15T13:02:52;100280.59;;;25.63;37.66
32642;BME280;19323;56.072;9.698;2023-03-15T13:05:24;100283.28;;;25.63;37.50
32642;BME280;19323;56.072;9.698;2023-03-15T13:07:53;100291.31;;;25.63;37.46
32642;BME280;19323;56.072;9.698;2023-03-15T13:13:09;100341.25;;;25.64;37.55
32642;BME280;19323;56.072;9.698;2023-03-15T13:15:50;100350.34;;;25.63;37.45
32642;BME280;19323;56.072;9.698;2023-03-15T13:18:21;100342.28;;;25.63;37.44
32642;BME280;19323;56.072;9.698;2023-03-15T13:20:49;100332.56;;;25.62;37.62
32642;BME280;19323;56.072;9.698;2023-03-15T13:23:28;100328.22;;;25.61;37.51
32642;BME280;19323;56.072;9.698;2023-03-15T13:28:23;100319.50;;;25.59;37.48
32642;BME280;19323;56.072;9.698;2023-03-15T13:30:52;100327.53;;;25.59;37.39
32642;BME280;19323;56.072;9.698;2023-03-15T13:33:19;100333.72;;;25.60;37.65